Time;durP1;ratioP1;P1;durP2;ratioP2;P2;SDS_P1;SDS_P2;PMS_P1;PMS_P2;Temp;Humidity;BMP_temperature;BMP_pressure;BME280_temperature;BME280_humidity;BME280_pressure;Samples;Min_cycle;Max_cycle;Signal;HPM_P1;HPM_P2
2022/08/16 00:01:40;;;;;;;9.48;5.40;;;;;;;20.38;53.57;100530.84;5034278;28;20409;-76
2022/08/16 00:04:07;;;;;;;7.35;5.28;;;;;;;20.43;53.31;100536.88;5044332;28;20076;-75
2022/08/16 00:06:37;;;;;;;7.18;4.82;;;;;;;20.43;53.07;100531.56;5044212;28;20497;-76
2022/08/16 00:09:05;;;;;;;6.88;4.93;;;;;;;20.31;53.11;100505.41;5042954;28;20083;-76
2022/08/16 00:11:32;;;;;;;7.90;5.07;;;;;;;20.43;53.14;100539.53;5036249;28;20057;-77
2022/08/16 00:14:00;;;;;;;8.45;5.28;;;;;;;20.31;53.10;100508.06;5013685;28;20139;-78
2022/08/16 00:16:35;;;;;;;9.27;5.43;;;;;;;20.25;53.09;100499.31;5014148;28;20057;-78
2022/08/16 00:19:27;;;;;;;7.40;4.82;;;;;;;20.40;52.98;100531.66;5014075;28;20052;-79
2022/08/16 00:22:08;;;;;;;12.85;5.28;;;;;;;20.40;53.25;100539.63;5013879;28;20061;-78
2022/08/16 00:24:41;;;;;;;8.57;5.00;;;;;;;20.40;53.10;100536.97;5013962;28;20149;-78
2022/08/16 00:27:13;;;;;;;6.13;5.00;;;;;;;20.38;53.18;100537.00;5014066;28;20165;-77
2022/08/16 00:29:40;;;;;;;6.60;5.20;;;;;;;20.34;52.90;100521.22;5013585;28;20061;-79
2022/08/16 00:32:08;;;;;;;8.27;5.07;;;;;;;20.37;53.13;100521.13;5012353;28;20062;-79
2022/08/16 00:34:37;;;;;;;10.93;5.47;;;;;;;20.34;53.24;100543.31;4994328;28;20537;-77
2022/08/16 00:37:27;;;;;;;10.35;5.60;;;;;;;20.30;53.46;100525.72;4994191;28;20061;-76
2022/08/16 00:40:32;;;;;;;9.07;5.03;;;;;;;20.21;53.41;100541.88;4993150;28;20050;-77
2022/08/16 00:43:28;;;;;;;11.52;5.68;;;;;;;20.13;53.96;100535.91;4993798;28;20054;-78
2022/08/16 00:46:26;;;;;;;9.27;5.85;;;;;;;20.01;54.02;100531.78;4992589;28;20101;-76
2022/08/16 00:49:08;;;;;;;9.52;5.60;;;;;;;20.00;54.31;100536.22;4993357;28;20062;-78
2022/08/16 00:51:46;;;;;;;10.65;5.43;;;;;;;19.99;54.18;100539.78;4992731;28;20502;-78
2022/08/16 00:54:25;;;;;;;9.65;5.55;;;;;;;19.86;54.48;100521.56;4994321;28;20054;-79
2022/08/16 00:56:53;;;;;;;9.40;5.20;;;;;;;19.98;54.54;100548.66;5000431;28;20058;-78
2022/08/16 00:59:27;;;;;;;8.18;5.40;;;;;;;19.90;54.54;100536.50;4996032;28;20057;-78
2022/08/16 01:01:55;;;;;;;7.47;5.70;;;;;;;19.86;54.93;100541.00;5004576;28;20053;-78
2022/08/16 01:04:26;;;;;;;7.25;5.40;;;;;;;19.79;55.12;100544.72;5013259;28;20054;-78
2022/08/16 01:07:00;;;;;;;7.70;5.78;;;;;;;19.72;55.62;100546.59;5013016;28;20418;-79
2022/08/16 01:09:35;;;;;;;7.57;5.57;;;;;;;19.61;55.46;100535.34;5012503;28;20128;-76
2022/08/16 01:12:07;;;;;;;9.82;5.45;;;;;;;19.45;55.71;100518.94;5017189;28;20065;-77
2022/08/16 01:14:44;;;;;;;8.95;5.70;;;;;;;19.52;55.95;100539.09;5031883;28;20056;-80
2022/08/16 01:17:16;;;;;;;8.32;5.45;;;;;;;19.55;55.99;100554.03;5033008;28;20060;-79
2022/08/16 01:19:48;;;;;;;9.38;5.68;;;;;;;19.52;56.08;100559.41;5033076;28;20144;-78
2022/08/16 01:22:23;;;;;;;9.13;5.47;;;;;;;19.48;55.83;100555.09;5031857;28;20057;-78
2022/08/16 01:25:17;;;;;;;6.72;5.20;;;;;;;19.32;56.04;100528.94;5032979;28;20053;-78
2022/08/16 01:27:52;;;;;;;7.70;5.25;;;;;;;19.46;56.13;100562.19;5015656;28;20566;-78
2022/08/16 01:30:43;;;;;;;9.23;5.43;;;;;;;19.37;56.15;100545.59;5033038;28;20049;-75
2022/08/16 01:33:18;;;;;;;7.35;5.80;;;;;;;19.37;56.50;100566.78;5032158;28;20046;-76
2022/08/16 01:35:57;;;;;;;9.52;5.68;;;;;;;19.31;56.46;100556.31;5043776;28;20520;-76
2022/08/16 01:38:29;;;;;;;10.57;5.97;;;;;;;19.24;56.71;100552.94;5026848;28;20072;-74
2022/08/16 01:41:05;;;;;;;7.93;5.75;;;;;;;19.08;56.95;100526.81;5042284;28;20049;-76
2022/08/16 01:43:35;;;;;;;9.40;6.15;;;;;;;19.24;57.00;100567.97;5033789;28;20107;-78
2022/08/16 01:46:06;;;;;;;11.73;6.00;;;;;;;19.09;57.02;100532.09;5031403;28;20053;-80
2022/08/16 01:49:05;;;;;;;8.88;5.88;;;;;;;19.19;57.11;100565.41;5031098;28;20049;-78
2022/08/16 01:51:33;;;;;;;12.43;6.75;;;;;;;19.22;56.96;100568.00;5031383;28;20053;-78
2022/08/16 01:54:07;;;;;;;9.23;6.47;;;;;;;19.19;57.04;100561.91;5031357;28;20508;-77
2022/08/16 01:56:39;;;;;;;9.65;6.75;;;;;;;19.09;57.33;100555.91;5031579;28;20573;-78
2022/08/16 01:59:11;;;;;;;8.75;6.47;;;;;;;19.05;57.30;100556.00;5031265;28;20520;-78
2022/08/16 02:01:45;;;;;;;10.57;6.68;;;;;;;19.03;57.50;100551.59;5034312;28;20127;-78
2022/08/16 02:04:24;;;;;;;10.52;7.03;;;;;;;19.04;57.76;100565.75;5036300;28;20053;-76
2022/08/16 02:07:12;;;;;;;10.38;6.78;;;;;;;18.99;57.87;100571.13;5017992;28;20060;-77
2022/08/16 02:09:40;;;;;;;13.10;6.35;;;;;;;19.03;57.97;100570.13;5034891;28;20053;-78
2022/08/16 02:12:09;;;;;;;10.07;6.63;;;;;;;19.02;57.67;100563.13;5035649;28;20064;-76
2022/08/16 02:14:56;;;;;;;10.38;7.00;;;;;;;18.97;57.70;100551.75;5034746;28;20045;-77
2022/08/16 02:17:29;;;;;;;10.07;7.07;;;;;;;19.05;57.52;100566.59;5035927;28;20053;-77
2022/08/16 02:19:56;;;;;;;12.02;7.47;;;;;;;18.94;57.33;100556.22;5034608;28;20393;-76
2022/08/16 02:22:27;;;;;;;8.45;6.20;;;;;;;19.05;57.34;100556.88;5034743;28;20522;-79
2022/08/16 02:25:10;;;;;;;9.30;6.63;;;;;;;18.99;57.04;100535.81;5034553;28;20160;-78
2022/08/16 02:27:43;;;;;;;11.55;6.68;;;;;;;19.18;57.10;100565.44;5036117;28;20077;-78
2022/08/16 02:30:21;;;;;;;10.05;7.43;;;;;;;19.27;56.77;100564.38;5035778;28;20049;-77
2022/08/16 02:33:10;;;;;;;9.18;6.75;;;;;;;19.29;56.73;100568.72;5034360;28;20103;-79
2022/08/16 02:35:38;;;;;;;11.53;6.40;;;;;;;19.31;56.35;100553.69;5034529;28;20057;-76
2022/08/16 02:38:22;;;;;;;8.77;7.03;;;;;;;19.31;56.51;100550.16;5034375;28;20288;-80
2022/08/16 02:40:50;;;;;;;13.88;6.90;;;;;;;19.34;56.44;100561.56;5035338;28;20077;-78
2022/08/16 02:43:23;;;;;;;9.23;6.63;;;;;;;19.38;56.57;100568.56;5035079;28;20140;-76
2022/08/16 02:45:56;;;;;;;14.85;7.50;;;;;;;19.39;56.68;100570.28;5035086;28;20060;-77
2022/08/16 02:48:25;;;;;;;12.88;6.97;;;;;;;19.38;56.48;100560.59;5017916;28;20053;-79
2022/08/16 02:51:00;;;;;;;11.07;6.90;;;;;;;19.41;56.45;100576.41;5034190;28;20077;-78
2022/08/16 02:53:42;;;;;;;10.88;7.20;;;;;;;19.39;56.67;100577.34;5034244;28;20523;-76
2022/08/16 02:56:13;;;;;;;12.95;7.40;;;;;;;19.38;56.91;100575.59;5033930;28;20394;-77
2022/08/16 02:58:45;;;;;;;10.95;6.43;;;;;;;19.37;56.60;100580.03;5034171;28;20045;-78
2022/08/16 03:01:15;;;;;;;10.68;6.40;;;;;;;19.48;56.16;100574.50;5033957;28;20394;-77
2022/08/16 03:04:05;;;;;;;11.80;6.85;;;;;;;19.65;55.90;100569.69;5034586;28;20402;-77
2022/08/16 03:06:53;;;;;;;12.95;7.00;;;;;;;19.87;55.22;100578.97;5034144;28;20060;-79
2022/08/16 03:09:35;;;;;;;9.23;6.70;;;;;;;20.12;54.70;100581.91;5033720;28;20049;-78
2022/08/16 03:12:03;;;;;;;10.70;7.18;;;;;;;20.37;54.21;100572.44;5034067;28;20156;-74
2022/08/16 03:14:32;;;;;;;9.18;6.95;;;;;;;21.41;51.41;100551.84;5033880;28;20061;-77
2022/08/16 03:17:00;;;;;;;11.70;7.10;;;;;;;24.18;44.98;100558.84;5033483;28;20057;-79
2022/08/16 03:19:37;;;;;;;10.15;7.00;;;;;;;26.80;39.26;100567.94;5033583;28;20049;-78
2022/08/16 03:22:24;;;;;;;8.02;6.65;;;;;;;28.48;36.14;100570.16;5033578;28;20060;-74
2022/08/16 03:25:08;;;;;;;9.98;6.68;;;;;;;29.54;34.40;100574.38;5033408;28;20088;-78
2022/08/16 03:27:39;;;;;;;12.48;5.97;;;;;;;30.11;32.60;100566.13;5033851;28;20064;-77
2022/08/16 03:30:18;;;;;;;8.77;6.70;;;;;;;30.73;31.87;100556.56;5032004;28;20539;-80
2022/08/16 03:32:52;;;;;;;9.23;6.57;;;;;;;30.53;31.69;100575.00;5013477;28;20056;-79
2022/08/16 03:35:27;;;;;;;10.35;6.50;;;;;;;29.74;33.00;100565.88;5013676;28;20107;-78
2022/08/16 03:38:09;;;;;;;8.43;6.57;;;;;;;30.25;32.19;100580.53;4996973;28;20050;-78
2022/08/16 03:40:58;;;;;;;8.23;6.78;;;;;;;32.16;29.47;100573.22;5013221;28;20057;-78
2022/08/16 03:43:28;;;;;;;8.75;6.60;;;;;;;32.89;28.22;100565.81;5013141;28;20077;-79
2022/08/16 03:46:20;;;;;;;11.57;6.65;;;;;;;33.10;27.62;100564.13;5017257;28;20076;-78
2022/08/16 03:49:11;;;;;;;11.77;6.25;;;;;;;33.52;27.04;100572.47;5032707;28;20080;-77
2022/08/16 03:51:42;;;;;;;6.85;5.95;;;;;;;33.46;26.85;100562.16;5032892;28;20050;-77
2022/08/16 03:54:17;;;;;;;12.88;6.20;;;;;;;32.03;28.98;100582.28;5032869;28;20063;-75
2022/08/16 03:56:47;;;;;;;7.25;6.55;;;;;;;29.54;32.56;100582.47;5032874;28;20048;-79
2022/08/16 03:59:28;;;;;;;11.20;7.25;;;;;;;27.43;36.56;100581.53;5032951;28;20056;-77
2022/08/16 04:02:05;;;;;;;9.48;6.53;;;;;;;26.46;38.46;100581.28;5033786;28;20055;-79
2022/08/16 04:04:48;;;;;;;8.73;6.32;;;;;;;26.18;39.05;100580.94;5032665;28;20061;-79
2022/08/16 04:07:16;;;;;;;9.98;6.22;;;;;;;26.03;39.38;100583.44;5032311;28;20453;-78
2022/08/16 04:09:45;;;;;;;8.93;6.57;;;;;;;25.72;39.94;100578.69;5032553;28;20493;-79
2022/08/16 04:12:12;;;;;;;9.57;6.03;;;;;;;25.58;40.55;100582.03;5033463;28;20076;-79
2022/08/16 04:15:03;;;;;;;10.25;5.90;;;;;;;25.45;40.92;100596.94;5032487;28;20045;-75
2022/08/16 04:17:39;;;;;;;9.33;6.80;;;;;;;25.39;41.01;100591.88;5016149;28;20462;-76
2022/08/16 04:20:12;;;;;;;10.60;6.75;;;;;;;25.12;41.25;100578.78;5032588;28;20089;-78
2022/08/16 04:23:01;;;;;;;10.05;6.97;;;;;;;25.03;41.61;100587.22;5031894;28;20080;-79
2022/08/16 04:25:30;;;;;;;;;;;;;;;24.49;42.48;100584.25;5030988;28;20513;-79
2022/08/16 04:27:59;;;;;;;10.20;6.60;;;;;;;24.60;42.60;100584.66;5032541;28;19955;-79
2022/08/16 04:30:46;;;;;;;10.60;6.60;;;;;;;24.68;42.37;100595.88;5032685;28;20056;-80
2022/08/16 04:33:16;;;;;;;7.80;6.10;;;;;;;24.68;41.88;100595.00;5031868;28;20136;-79
2022/08/16 04:35:56;;;;;;;13.30;6.68;;;;;;;24.78;42.49;100585.66;5032166;28;20059;-76
2022/08/16 04:38:24;;;;;;;12.50;6.25;;;;;;;24.81;42.06;100568.63;5032000;28;20196;-78
2022/08/16 04:40:54;;;;;;;9.82;5.82;;;;;;;24.98;41.92;100587.44;5032661;28;20429;-75
2022/08/16 04:43:24;;;;;;;9.18;5.85;;;;;;;25.12;41.79;100592.13;5028502;28;20060;-78
2022/08/16 04:45:54;;;;;;;10.60;6.38;;;;;;;25.08;42.16;100594.09;5029158;28;20057;-77
2022/08/16 04:48:31;;;;;;;6.25;5.65;;;;;;;25.12;41.80;100590.38;5016123;28;20061;-81
2022/08/16 04:51:08;;;;;;;9.00;5.75;;;;;;;25.10;41.75;100600.25;5022682;28;20506;-76
2022/08/16 04:53:45;;;;;;;5.97;5.13;;;;;;;25.20;41.92;100597.19;5021630;28;20061;-76
2022/08/16 04:56:15;;;;;;;10.95;5.95;;;;;;;25.49;41.01;100603.84;5017116;28;20065;-79
2022/08/16 04:58:43;;;;;;;9.18;6.10;;;;;;;25.33;41.13;100576.97;5012628;28;20337;-78
2022/08/16 05:01:17;;;;;;;9.45;5.75;;;;;;;25.38;41.35;100599.00;5016162;28;20153;-77
2022/08/16 05:03:45;;;;;;;10.07;5.68;;;;;;;25.43;41.11;100597.00;5012833;28;20069;-78
2022/08/16 05:06:30;;;;;;;11.45;6.38;;;;;;;25.53;40.72;100605.44;5012258;28;20112;-78
2022/08/16 05:09:29;;;;;;;10.00;6.35;;;;;;;25.49;41.10;100593.13;5012221;28;20062;-75
2022/08/16 05:12:03;;;;;;;12.10;5.90;;;;;;;25.45;40.84;100587.09;5011874;28;20418;-77
2022/08/16 05:14:31;;;;;;;12.85;5.85;;;;;;;25.57;41.16;100600.81;5028492;28;20506;-78
2022/08/16 05:17:21;;;;;;;13.27;6.60;;;;;;;25.70;40.19;100585.91;5028177;28;20054;-79
2022/08/16 05:19:55;;;;;;;10.60;6.18;;;;;;;25.70;40.45;100589.44;5011970;28;20146;-78
2022/08/16 05:22:37;;;;;;;9.60;5.55;;;;;;;25.83;40.11;100583.50;5011844;28;20144;-76
2022/08/16 05:25:06;;;;;;;12.90;6.60;;;;;;;25.97;39.91;100586.41;5011462;28;20407;-79
2022/08/16 05:27:39;;;;;;;14.98;6.65;;;;;;;26.03;39.57;100588.78;5011810;28;20046;-78
2022/08/16 05:30:14;;;;;;;11.98;6.22;;;;;;;26.15;39.12;100589.97;5011795;28;20056;-76
2022/08/16 05:33:04;;;;;;;12.65;6.20;;;;;;;26.08;39.51;100593.91;5011843;28;20050;-77
2022/08/16 05:35:35;;;;;;;10.15;6.22;;;;;;;25.93;39.64;100561.59;5014615;28;20104;-78
2022/08/16 05:38:17;;;;;;;14.55;6.55;;;;;;;26.06;39.38;100598.47;5001103;28;20058;-79
2022/08/16 05:41:07;;;;;;;15.85;6.55;;;;;;;26.01;39.32;100593.34;5015498;28;20078;-79
2022/08/16 05:43:40;;;;;;;9.23;6.20;;;;;;;26.03;39.46;100596.81;5015470;28;20054;-75
2022/08/16 05:46:20;;;;;;;10.93;5.88;;;;;;;26.11;39.64;100575.00;5015338;28;20050;-76
2022/08/16 05:49:14;;;;;;;13.38;5.90;;;;;;;26.46;39.04;100585.78;5016860;28;20099;-77
2022/08/16 05:51:49;;;;;;;11.95;6.07;;;;;;;26.52;39.13;100591.69;5014894;28;20054;-77
2022/08/16 05:54:18;;;;;;;10.07;6.20;;;;;;;26.62;38.79;100583.19;4997694;28;20053;-77
2022/08/16 05:57:12;;;;;;;11.02;5.75;;;;;;;26.57;38.96;100578.06;5014262;28;20080;-79
2022/08/16 05:59:41;;;;;;;11.23;5.97;;;;;;;26.66;38.94;100582.09;5014142;28;20160;-77
2022/08/16 06:02:09;;;;;;;8.90;5.55;;;;;;;26.50;38.87;100580.19;5014077;28;20084;-77
2022/08/16 06:04:37;;;;;;;8.47;5.37;;;;;;;26.60;38.88;100571.69;5029980;28;20566;-77
2022/08/16 06:07:14;;;;;;;7.38;5.18;;;;;;;26.84;38.53;100586.47;5025110;28;20148;-77
2022/08/16 06:10:03;;;;;;;11.07;5.18;;;;;;;26.88;38.53;100563.06;5033773;28;20053;-79
2022/08/16 06:12:34;;;;;;;11.77;5.72;;;;;;;27.03;38.17;100577.44;5033526;28;20061;-78
2022/08/16 06:15:19;;;;;;;8.07;5.60;;;;;;;27.07;38.04;100574.53;5033499;28;20081;-78
2022/08/16 06:17:47;;;;;;;9.23;4.93;;;;;;;27.19;37.22;100578.38;5035013;28;20145;-79
2022/08/16 06:20:24;;;;;;;12.02;6.35;;;;;;;27.27;37.31;100581.50;5033712;28;20049;-79
2022/08/16 06:23:15;;;;;;;11.13;5.43;;;;;;;27.07;36.94;100571.84;5033671;28;20049;-78
2022/08/16 06:26:05;;;;;;;13.27;5.68;;;;;;;26.87;37.05;100564.88;5033155;28;20429;-77
2022/08/16 06:28:38;;;;;;;7.03;4.53;;;;;;;26.76;36.80;100570.81;5034650;28;20080;-77
2022/08/16 06:31:14;;;;;;;8.35;4.43;;;;;;;26.82;36.63;100549.97;5016637;28;20457;-78
2022/08/16 06:34:03;;;;;;;6.72;4.50;;;;;;;27.01;36.29;100569.47;5033594;28;20161;-78
2022/08/16 06:36:50;;;;;;;6.95;4.40;;;;;;;27.09;36.25;100569.09;5033503;28;20057;-79
2022/08/16 06:39:26;;;;;;;8.93;5.10;;;;;;;27.15;36.19;100574.13;5033154;28;20061;-78
2022/08/16 06:41:57;;;;;;;5.35;4.40;;;;;;;27.07;35.58;100544.16;5032750;28;20503;-79
2022/08/16 06:44:40;;;;;;;10.77;4.40;;;;;;;27.16;35.96;100563.28;5033672;28;20501;-78
2022/08/16 06:47:24;;;;;;;6.82;4.53;;;;;;;27.17;35.91;100556.97;5033328;28;20046;-77
2022/08/16 06:50:11;;;;;;;8.27;4.75;;;;;;;27.28;35.58;100550.22;5018506;28;20050;-78
2022/08/16 06:52:56;;;;;;;5.10;4.22;;;;;;;27.57;35.23;100570.88;5041483;28;20080;-78
2022/08/16 06:55:30;;;;;;;8.27;4.13;;;;;;;27.68;35.10;100572.09;5044213;28;20144;-76
2022/08/16 06:58:05;;;;;;;5.00;4.07;;;;;;;27.53;34.78;100538.94;5041104;28;20065;-77
2022/08/16 07:00:37;;;;;;;7.72;4.35;;;;;;;27.43;35.31;100517.16;5033400;28;20108;-78
2022/08/16 07:03:10;;;;;;;7.80;4.80;;;;;;;27.93;34.84;100575.16;5033406;28;20056;-79
2022/08/16 07:05:58;;;;;;;9.57;4.47;;;;;;;27.87;34.77;100535.22;5034458;28;20052;-79
2022/08/16 07:08:32;;;;;;;8.85;4.60;;;;;;;28.24;34.36;100565.28;5034064;28;20755;-80
2022/08/16 07:11:00;;;;;;;11.27;4.55;;;;;;;28.02;34.11;100511.13;5035416;28;20049;-79
2022/08/16 07:13:31;;;;;;;12.02;4.60;;;;;;;28.24;34.51;100562.59;5035547;28;20499;-80
2022/08/16 07:16:20;;;;;;;6.05;4.20;;;;;;;28.00;34.49;100562.22;5033092;28;20148;-78
2022/08/16 07:18:56;;;;;;;7.70;4.13;;;;;;;27.89;35.14;100572.72;5033074;28;20053;-78
2022/08/16 07:21:27;;;;;;;8.32;4.13;;;;;;;27.87;34.93;100543.28;5034539;28;20118;-76
2022/08/16 07:24:16;;;;;;;14.18;4.75;;;;;;;28.09;34.70;100566.19;5031435;28;20595;-79
2022/08/16 07:27:03;;;;;;;12.05;4.28;;;;;;;28.02;34.58;100559.47;5029360;28;20431;-78
2022/08/16 07:29:37;;;;;;;8.82;4.32;;;;;;;28.01;34.55;100555.91;5033102;28;20046;-80
2022/08/16 07:32:09;;;;;;;7.97;4.07;;;;;;;28.12;34.33;100541.88;5032201;28;20088;-79
2022/08/16 07:34:36;;;;;;;8.32;4.35;;;;;;;28.24;34.17;100525.00;5032043;28;20049;-79
2022/08/16 07:37:15;;;;;;;13.18;4.40;;;;;;;28.40;34.22;100527.63;5031055;28;20057;-79
2022/08/16 07:40:12;;;;;;;9.82;4.45;;;;;;;28.64;34.26;100549.50;5030542;28;20057;-77
2022/08/16 07:42:42;;;;;;;12.05;4.30;;;;;;;28.72;33.93;100539.13;5029567;28;20449;-78
2022/08/16 07:45:13;;;;;;;4.40;4.00;;;;;;;28.75;33.40;100546.16;5032205;28;20049;-78
2022/08/16 07:47:48;;;;;;;9.30;4.60;;;;;;;28.40;34.21;100533.00;5032471;28;20553;-78
2022/08/16 07:50:18;;;;;;;10.00;4.13;;;;;;;28.35;34.20;100516.28;5030797;28;20095;-78
2022/08/16 07:53:06;;;;;;;6.72;4.20;;;;;;;28.55;33.92;100553.59;5050632;28;20057;-81
2022/08/16 07:55:35;;;;;;;7.63;3.80;;;;;;;28.62;33.38;100562.16;5025991;28;20053;-82
2022/08/16 07:58:19;;;;;;;7.68;4.30;;;;;;;28.31;33.61;100518.31;5030064;28;20508;-80
2022/08/16 08:01:06;;;;;;;5.30;3.90;;;;;;;28.10;33.57;100531.19;5024259;28;20513;-77
2022/08/16 08:03:42;;;;;;;6.57;3.80;;;;;;;28.19;33.88;100545.91;5028009;28;20501;-82
2022/08/16 08:06:21;;;;;;;6.28;3.97;;;;;;;28.28;34.07;100542.66;5045801;28;20053;-80
2022/08/16 08:08:53;;;;;;;5.45;4.13;;;;;;;28.46;33.50;100550.56;5039884;28;20045;-79
2022/08/16 08:11:27;;;;;;;7.43;3.90;;;;;;;28.51;32.98;100543.16;5032447;28;20494;-79
2022/08/16 08:13:59;;;;;;;6.63;3.72;;;;;;;28.54;32.78;100545.63;5034314;28;20152;-79
2022/08/16 08:16:35;;;;;;;4.93;3.70;;;;;;;28.52;32.86;100555.59;5010122;28;20521;-80
2022/08/16 08:19:11;;;;;;;6.28;3.60;;;;;;;28.43;32.95;100518.53;5044050;28;20045;-79
2022/08/16 08:21:41;;;;;;;9.05;4.13;;;;;;;28.36;32.76;100497.41;5044792;28;20050;-80
2022/08/16 08:24:37;;;;;;;7.47;3.58;;;;;;;28.48;32.97;100528.06;5042818;28;20045;-79
2022/08/16 08:27:11;;;;;;;9.90;4.13;;;;;;;28.55;32.87;100542.00;5041558;28;20053;-81
2022/08/16 08:29:50;;;;;;;7.15;3.92;;;;;;;28.55;33.20;100542.84;5036063;28;20501;-81
2022/08/16 08:32:39;;;;;;;8.80;4.10;;;;;;;28.41;33.20;100531.19;5032277;28;20046;-80
2022/08/16 08:35:28;;;;;;;6.25;3.53;;;;;;;28.45;32.86;100519.28;5033572;28;20147;-79
2022/08/16 08:37:57;;;;;;;8.45;4.30;;;;;;;28.41;32.73;100515.91;5033232;28;20060;-79
2022/08/16 08:40:29;;;;;;;8.25;3.78;;;;;;;28.23;32.95;100490.19;5032254;28;20104;-80
2022/08/16 08:42:58;;;;;;;7.30;3.72;;;;;;;28.43;32.95;100510.47;5033221;28;20071;-79
2022/08/16 08:45:45;;;;;;;6.95;4.18;;;;;;;28.53;33.28;100533.16;5032957;28;20585;-79
2022/08/16 08:48:17;;;;;;;8.23;4.25;;;;;;;28.48;32.97;100521.78;5032044;28;20045;-78
2022/08/16 08:51:11;;;;;;;4.85;3.67;;;;;;;28.70;32.72;100514.19;5018896;28;20136;-79
2022/08/16 08:53:58;;;;;;;6.10;3.92;;;;;;;28.71;32.62;100509.66;5021715;28;20057;-78
2022/08/16 08:56:31;;;;;;;;;;;;;;;28.66;32.97;100514.47;5038760;28;20057;-79
2022/08/16 08:59:21;;;;;;;5.45;3.95;;;;;;;28.62;32.60;100489.59;5025430;28;19925;-78
2022/08/16 09:01:54;;;;;;;7.00;4.47;;;;;;;28.65;32.59;100528.84;5032586;28;20057;-77
2022/08/16 09:04:26;;;;;;;8.80;4.38;;;;;;;28.60;33.17;100515.69;5032140;28;20061;-80
2022/08/16 09:06:55;;;;;;;8.57;3.40;;;;;;;28.62;32.85;100484.22;5015970;28;20057;-77
2022/08/16 09:09:29;;;;;;;7.50;3.70;;;;;;;28.74;31.92;100509.50;5031486;28;20053;-79
2022/08/16 09:12:03;;;;;;;8.75;4.05;;;;;;;28.64;32.34;100527.13;5032189;28;20100;-81
2022/08/16 09:14:50;;;;;;;5.95;3.90;;;;;;;28.78;32.27;100521.75;5032542;28;20417;-81
2022/08/16 09:17:23;;;;;;;4.70;3.63;;;;;;;28.91;31.88;100516.47;5016709;28;20080;-79
2022/08/16 09:20:13;;;;;;;4.65;3.80;;;;;;;28.92;32.15;100513.69;5032438;28;20053;-81
2022/08/16 09:22:43;;;;;;;5.47;4.00;;;;;;;29.17;31.41;100514.88;5031086;28;20049;-78
2022/08/16 09:25:21;;;;;;;5.13;3.50;;;;;;;29.15;31.38;100528.41;5031691;28;20045;-79
2022/08/16 09:27:55;;;;;;;6.75;4.28;;;;;;;28.79;32.26;100524.34;5033529;28;20073;-80
2022/08/16 09:30:35;;;;;;;6.82;4.13;;;;;;;28.94;31.79;100537.81;5035130;28;20049;-79
2022/08/16 09:33:17;;;;;;;7.72;4.13;;;;;;;28.59;31.61;100514.84;5036238;28;20119;-78
2022/08/16 09:35:47;;;;;;;7.00;3.47;;;;;;;28.45;31.78;100504.03;5039304;28;20054;-78
2022/08/16 09:38:21;;;;;;;6.00;3.72;;;;;;;28.51;31.79;100525.19;5036399;28;20510;-80
2022/08/16 09:41:04;;;;;;;6.40;3.65;;;;;;;28.44;32.22;100512.19;5034832;28;20502;-79
2022/08/16 09:43:41;;;;;;;4.43;3.50;;;;;;;28.77;31.99;100517.34;5038208;28;20053;-79
2022/08/16 09:46:27;;;;;;;5.60;3.92;;;;;;;28.99;31.80;100501.56;5038499;28;20075;-78
2022/08/16 09:49:15;;;;;;;5.60;3.83;;;;;;;28.98;31.70;100497.19;5036998;28;20080;-79
2022/08/16 09:51:52;;;;;;;5.63;3.60;;;;;;;29.05;31.61;100496.78;5032155;28;20046;-79
2022/08/16 09:54:21;;;;;;;10.73;4.00;;;;;;;29.03;32.00;100504.94;5031657;28;20050;-79
2022/08/16 09:56:49;;;;;;;6.05;4.03;;;;;;;29.05;31.72;100521.84;5032331;28;20286;-80
2022/08/16 09:59:21;;;;;;;7.07;4.05;;;;;;;29.11;31.61;100515.25;5032312;28;20139;-80
2022/08/16 10:01:49;;;;;;;6.95;4.07;;;;;;;29.20;31.22;100510.13;5031183;28;20148;-79
2022/08/16 10:04:18;;;;;;;8.25;4.50;;;;;;;29.45;31.01;100515.75;5032404;28;20041;-77
2022/08/16 10:06:58;;;;;;;4.85;3.80;;;;;;;29.72;30.71;100505.03;5032705;28;20057;-78
2022/08/16 10:09:27;;;;;;;5.00;3.70;;;;;;;29.70;30.53;100515.03;5032043;28;20103;-79
2022/08/16 10:15:13;;;;;;;4.25;3.83;;;;;;;29.13;30.92;100444.28;5032012;28;20053;-79
2022/08/16 10:17:46;;;;;;;4.95;3.70;;;;;;;29.32;30.87;100473.53;5032124;28;20092;-80
2022/08/16 10:20:37;;;;;;;7.53;4.50;;;;;;;29.63;30.61;100509.19;5030646;28;20061;-78
2022/08/16 10:23:06;;;;;;;4.88;3.90;;;;;;;29.62;30.39;100472.47;5035784;28;20060;-81
2022/08/16 10:25:39;;;;;;;4.47;3.90;;;;;;;29.75;30.20;100496.75;5035862;28;20049;-80
2022/08/16 10:28:28;;;;;;;4.88;4.13;;;;;;;29.83;30.18;100496.25;5035315;28;20549;-80
2022/08/16 10:31:08;;;;;;;6.45;4.10;;;;;;;29.69;30.63;100497.16;5035407;28;20513;-77
2022/08/16 10:33:38;;;;;;;6.63;4.03;;;;;;;29.57;30.77;100506.88;5035022;28;20064;-79
2022/08/16 10:36:07;;;;;;;5.70;4.07;;;;;;;29.41;30.96;100466.69;5034167;28;20056;-79
2022/08/16 10:38:36;;;;;;;7.00;4.32;;;;;;;29.50;31.13;100490.28;5035502;28;20052;-78
2022/08/16 10:41:08;;;;;;;5.78;4.50;;;;;;;29.19;31.35;100472.59;5035267;28;20061;-79
2022/08/16 10:43:38;;;;;;;5.93;4.10;;;;;;;29.25;31.18;100508.97;5034307;28;20523;-77
2022/08/16 10:46:10;;;;;;;8.55;4.10;;;;;;;29.00;31.35;100492.56;5034921;28;20053;-77
2022/08/16 10:48:57;;;;;;;7.28;4.15;;;;;;;28.36;31.54;100422.19;5035227;28;20049;-80
2022/08/16 10:51:27;;;;;;;8.70;4.20;;;;;;;28.59;31.89;100460.25;5034757;28;20045;-78
2022/08/16 10:54:14;;;;;;;6.55;4.32;;;;;;;28.74;31.97;100499.59;5034084;28;20049;-79
2022/08/16 10:56:58;;;;;;;4.13;3.72;;;;;;;28.58;31.90;100455.81;5037954;28;20429;-77
2022/08/16 10:59:26;;;;;;;4.80;3.58;;;;;;;28.73;31.47;100487.09;5035804;28;20086;-78
2022/08/16 11:02:13;;;;;;;6.90;4.05;;;;;;;28.59;32.23;100484.44;5035606;28;20045;-78
2022/08/16 11:05:00;;;;;;;5.90;4.18;;;;;;;28.57;32.10;100480.97;5035640;28;20537;-80
2022/08/16 11:07:33;;;;;;;4.80;4.07;;;;;;;28.57;32.62;100475.59;5034392;28;20394;-79
2022/08/16 11:10:23;;;;;;;5.00;3.97;;;;;;;28.84;32.19;100480.19;5020039;28;20049;-81
2022/08/16 11:13:16;;;;;;;4.70;4.15;;;;;;;28.97;31.95;100465.00;5034625;28;20148;-80
2022/08/16 11:16:04;;;;;;;9.30;3.97;;;;;;;29.05;31.68;100476.13;5034673;28;20046;-80
2022/08/16 11:18:52;;;;;;;5.43;4.38;;;;;;;28.95;31.46;100481.25;5033880;28;20128;-80
2022/08/16 11:21:41;;;;;;;6.35;4.55;;;;;;;28.75;31.89;100473.56;5030716;28;20136;-79
2022/08/16 11:24:28;;;;;;;5.68;4.40;;;;;;;29.01;30.90;100474.59;5033711;28;20060;-79
2022/08/16 11:27:15;;;;;;;8.68;4.20;;;;;;;28.91;31.35;100433.13;5033342;28;20520;-78
2022/08/16 11:29:49;;;;;;;7.75;4.38;;;;;;;29.27;30.98;100466.72;5034782;28;20049;-77
2022/08/16 11:32:18;;;;;;;10.00;4.60;;;;;;;29.30;31.11;100453.94;5034314;28;20050;-81
2022/08/16 11:34:48;;;;;;;7.07;4.70;;;;;;;29.63;30.82;100449.97;5033043;28;20540;-80
2022/08/16 11:37:36;;;;;;;6.82;4.30;;;;;;;29.78;30.37;100440.88;5034295;28;20071;-79
2022/08/16 11:40:26;;;;;;;6.63;4.70;;;;;;;29.78;30.44;100437.34;5034443;28;20060;-77
2022/08/16 11:43:00;;;;;;;6.00;4.25;;;;;;;29.69;30.72;100429.84;5034760;28;20061;-78
2022/08/16 11:45:33;;;;;;;8.65;5.00;;;;;;;28.93;30.70;100372.94;5034014;28;20133;-76
2022/08/16 11:48:04;;;;;;;8.23;4.15;;;;;;;29.11;31.21;100445.34;5034144;28;20441;-76
2022/08/16 11:50:32;;;;;;;7.90;4.80;;;;;;;28.88;31.50;100441.41;5033965;28;20077;-78
2022/08/16 11:53:01;;;;;;;7.63;4.70;;;;;;;28.79;31.85;100438.31;5034016;28;20049;-78
2022/08/16 11:55:31;;;;;;;7.95;4.57;;;;;;;28.69;31.78;100439.00;5034190;28;20057;-78
2022/08/16 11:57:59;;;;;;;8.05;4.57;;;;;;;28.67;31.65;100435.56;5033627;28;20049;-79
2022/08/16 12:00:28;;;;;;;7.82;4.63;;;;;;;28.88;31.72;100442.25;5034051;28;20535;-78
2022/08/16 12:03:16;;;;;;;7.53;4.78;;;;;;;28.89;31.56;100443.09;5023253;28;20053;-78
2022/08/16 12:05:45;;;;;;;6.30;4.95;;;;;;;29.01;31.66;100434.25;5040354;28;20053;-79
2022/08/16 12:08:19;;;;;;;8.75;5.35;;;;;;;29.43;30.92;100436.97;5045288;28;20053;-78
2022/08/16 12:10:52;;;;;;;9.93;5.40;;;;;;;29.81;30.50;100439.81;5044773;28;20117;-78
2022/08/16 12:13:19;;;;;;;7.53;5.30;;;;;;;30.02;30.39;100432.94;5035313;28;20582;-78